sensor_id;sensor_type;location;lat;lon;timestamp;temperature;humidity
7792;DHT22;3940;49.892;10.886;2022-08-07T00:01:37;20.30;79.20
7792;DHT22;3940;49.892;10.886;2022-08-07T00:04:22;20.10;79.20
7792;DHT22;3940;49.892;10.886;2022-08-07T00:07:06;20.10;79.80
7792;DHT22;3940;49.892;10.886;2022-08-07T00:09:50;20.10;80.10
7792;DHT22;3940;49.892;10.886;2022-08-07T00:12:35;20.00;82.20
7792;DHT22;3940;49.892;10.886;2022-08-07T00:15:22;19.90;82.50
7792;DHT22;3940;49.892;10.886;2022-08-07T00:18:08;19.80;81.20
7792;DHT22;3940;49.892;10.886;2022-08-07T00:20:55;19.80;85.50
7792;DHT22;3940;49.892;10.886;2022-08-07T00:23:41;19.80;81.40
7792;DHT22;3940;49.892;10.886;2022-08-07T00:26:25;19.80;82.30
7792;DHT22;3940;49.892;10.886;2022-08-07T00:29:10;19.70;85.10
7792;DHT22;3940;49.892;10.886;2022-08-07T00:31:55;19.70;86.40
7792;DHT22;3940;49.892;10.886;2022-08-07T00:34:42;19.70;83.20
7792;DHT22;3940;49.892;10.886;2022-08-07T00:37:27;19.70;84.10
7792;DHT22;3940;49.892;10.886;2022-08-07T00:40:13;19.70;86.30
7792;DHT22;3940;49.892;10.886;2022-08-07T00:42:58;19.70;88.10
7792;DHT22;3940;49.892;10.886;2022-08-07T00:45:42;19.70;90.00
7792;DHT22;3940;49.892;10.886;2022-08-07T00:48:27;19.60;88.00
7792;DHT22;3940;49.892;10.886;2022-08-07T00:51:12;19.60;90.10
7792;DHT22;3940;49.892;10.886;2022-08-07T00:53:56;19.50;88.70
7792;DHT22;3940;49.892;10.886;2022-08-07T00:56:41;19.50;91.70
7792;DHT22;3940;49.892;10.886;2022-08-07T00:59:25;19.50;90.20
7792;DHT22;3940;49.892;10.886;2022-08-07T01:02:11;19.40;91.10
7792;DHT22;3940;49.892;10.886;2022-08-07T01:04:56;19.40;89.50
7792;DHT22;3940;49.892;10.886;2022-08-07T01:07:41;19.30;90.10
7792;DHT22;3940;49.892;10.886;2022-08-07T01:10:25;19.30;91.00
7792;DHT22;3940;49.892;10.886;2022-08-07T01:13:10;19.30;92.10
7792;DHT22;3940;49.892;10.886;2022-08-07T01:15:56;19.20;92.60
7792;DHT22;3940;49.892;10.886;2022-08-07T01:18:42;19.30;91.50
7792;DHT22;3940;49.892;10.886;2022-08-07T01:21:26;19.20;91.10
7792;DHT22;3940;49.892;10.886;2022-08-07T01:24:11;19.20;91.50
7792;DHT22;3940;49.892;10.886;2022-08-07T01:26:56;19.20;92.30
7792;DHT22;3940;49.892;10.886;2022-08-07T01:29:42;19.20;92.60
7792;DHT22;3940;49.892;10.886;2022-08-07T01:32:27;19.10;92.40
7792;DHT22;3940;49.892;10.886;2022-08-07T01:35:11;19.00;90.80
7792;DHT22;3940;49.892;10.886;2022-08-07T01:37:56;18.90;91.90
7792;DHT22;3940;49.892;10.886;2022-08-07T01:40:42;18.90;93.10
7792;DHT22;3940;49.892;10.886;2022-08-07T01:43:28;19.00;94.40
7792;DHT22;3940;49.892;10.886;2022-08-07T01:46:14;19.00;94.30
7792;DHT22;3940;49.892;10.886;2022-08-07T01:48:58;18.90;94.60
7792;DHT22;3940;49.892;10.886;2022-08-07T01:51:43;18.70;95.80
7792;DHT22;3940;49.892;10.886;2022-08-07T01:54:39;18.60;95.20
7792;DHT22;3940;49.892;10.886;2022-08-07T01:57:27;18.70;96.70
7792;DHT22;3940;49.892;10.886;2022-08-07T02:00:14;18.60;94.50
7792;DHT22;3940;49.892;10.886;2022-08-07T02:03:02;18.60;97.00
7792;DHT22;3940;49.892;10.886;2022-08-07T02:05:56;18.60;99.70
7792;DHT22;3940;49.892;10.886;2022-08-07T02:08:43;18.70;98.40
7792;DHT22;3940;49.892;10.886;2022-08-07T02:11:27;18.60;99.00
7792;DHT22;3940;49.892;10.886;2022-08-07T02:14:13;18.60;99.90
7792;DHT22;3940;49.892;10.886;2022-08-07T02:16:59;18.60;99.90
7792;DHT22;3940;49.892;10.886;2022-08-07T02:19:45;18.60;99.90
7792;DHT22;3940;49.892;10.886;2022-08-07T02:22:31;18.50;99.60
7792;DHT22;3940;49.892;10.886;2022-08-07T02:25:17;18.50;99.90
7792;DHT22;3940;49.892;10.886;2022-08-07T02:28:04;18.50;99.80
7792;DHT22;3940;49.892;10.886;2022-08-07T02:30:50;18.40;99.90
7792;DHT22;3940;49.892;10.886;2022-08-07T02:33:37;18.50;99.90
7792;DHT22;3940;49.892;10.886;2022-08-07T02:36:22;18.50;99.90
7792;DHT22;3940;49.892;10.886;2022-08-07T02:39:07;18.50;99.90
7792;DHT22;3940;49.892;10.886;2022-08-07T02:41:52;18.50;99.90
7792;DHT22;3940;49.892;10.886;2022-08-07T02:44:40;18.40;99.90
7792;DHT22;3940;49.892;10.886;2022-08-07T02:47:25;18.40;99.90
7792;DHT22;3940;49.892;10.886;2022-08-07T02:50:10;18.30;99.90
7792;DHT22;3940;49.892;10.886;2022-08-07T02:53:00;18.30;99.90
7792;DHT22;3940;49.892;10.886;2022-08-07T02:55:48;18.30;99.90
7792;DHT22;3940;49.892;10.886;2022-08-07T02:58:33;18.20;99.90
7792;DHT22;3940;49.892;10.886;2022-08-07T03:01:20;18.20;99.90
7792;DHT22;3940;49.892;10.886;2022-08-07T03:04:09;18.30;99.90
7792;DHT22;3940;49.892;10.886;2022-08-07T03:06:55;18.20;99.90
7792;DHT22;3940;49.892;10.886;2022-08-07T03:09:40;18.10;99.90
7792;DHT22;3940;49.892;10.886;2022-08-07T03:12:25;18.10;99.90
7792;DHT22;3940;49.892;10.886;2022-08-07T03:15:11;18.00;99.90
7792;DHT22;3940;49.892;10.886;2022-08-07T03:17:56;18.00;99.90
7792;DHT22;3940;49.892;10.886;2022-08-07T03:20:42;18.00;99.90
7792;DHT22;3940;49.892;10.886;2022-08-07T03:23:29;17.90;99.90
7792;DHT22;3940;49.892;10.886;2022-08-07T03:26:17;17.90;99.90
7792;DHT22;3940;49.892;10.886;2022-08-07T03:29:04;18.00;99.90
7792;DHT22;3940;49.892;10.886;2022-08-07T03:31:50;17.90;99.90
7792;DHT22;3940;49.892;10.886;2022-08-07T03:34:37;17.90;99.90
7792;DHT22;3940;49.892;10.886;2022-08-07T03:37:23;17.90;99.90
7792;DHT22;3940;49.892;10.886;2022-08-07T03:40:09;17.90;99.90
7792;DHT22;3940;49.892;10.886;2022-08-07T03:42:54;17.80;99.90
7792;DHT22;3940;49.892;10.886;2022-08-07T03:45:39;17.90;99.90
7792;DHT22;3940;49.892;10.886;2022-08-07T03:48:25;17.90;99.90
7792;DHT22;3940;49.892;10.886;2022-08-07T03:51:10;17.80;99.90
7792;DHT22;3940;49.892;10.886;2022-08-07T03:53:54;17.80;99.90
7792;DHT22;3940;49.892;10.886;2022-08-07T03:56:39;17.80;99.90
7792;DHT22;3940;49.892;10.886;2022-08-07T03:59:25;17.80;99.90
7792;DHT22;3940;49.892;10.886;2022-08-07T04:02:10;17.70;99.90
7792;DHT22;3940;49.892;10.886;2022-08-07T04:04:55;17.80;99.90
7792;DHT22;3940;49.892;10.886;2022-08-07T04:07:45;17.70;99.90
7792;DHT22;3940;49.892;10.886;2022-08-07T04:10:31;17.70;99.90
7792;DHT22;3940;49.892;10.886;2022-08-07T04:13:16;17.60;99.90
7792;DHT22;3940;49.892;10.886;2022-08-07T04:16:02;17.50;99.90
7792;DHT22;3940;49.892;10.886;2022-08-07T04:18:46;17.50;99.90
7792;DHT22;3940;49.892;10.886;2022-08-07T04:21:31;17.50;99.90
7792;DHT22;3940;49.892;10.886;2022-08-07T04:24:16;17.50;99.90
7792;DHT22;3940;49.892;10.886;2022-08-07T04:27:00;17.60;99.90
7792;DHT22;3940;49.892;10.886;2022-08-07T04:29:46;17.60;99.90
7792;DHT22;3940;49.892;10.886;2022-08-07T04:32:32;17.60;99.90
7792;DHT22;3940;49.892;10.886;2022-08-07T04:35:17;17.60;99.90
7792;DHT22;3940;49.892;10.886;2022-08-07T04:38:05;17.60;99.90
7792;DHT22;3940;49.892;10.886;2022-08-07T04:40:49;17.70;99.90
7792;DHT22;3940;49.892;10.886;2022-08-07T04:43:36;17.70;99.90
7792;DHT22;3940;49.892;10.886;2022-08-07T04:46:39;17.70;99.90
7792;DHT22;3940;49.892;10.886;2022-08-07T04:49:37;17.80;99.90
7792;DHT22;3940;49.892;10.886;2022-08-07T04:52:45;18.00;99.90
7792;DHT22;3940;49.892;10.886;2022-08-07T04:55:55;18.00;99.90
7792;DHT22;3940;49.892;10.886;2022-08-07T04:58:59;17.90;99.90
7792;DHT22;3940;49.892;10.886;2022-08-07T05:01:55;17.90;99.90
7792;DHT22;3940;49.892;10.886;2022-08-07T05:07:55;18.00;99.90
7792;DHT22;3940;49.892;10.886;2022-08-07T05:10:44;18.10;99.90
7792;DHT22;3940;49.892;10.886;2022-08-07T05:13:34;18.20;99.90
7792;DHT22;3940;49.892;10.886;2022-08-07T05:16:22;18.30;99.90
7792;DHT22;3940;49.892;10.886;2022-08-07T05:19:12;18.40;99.90
7792;DHT22;3940;49.892;10.886;2022-08-07T05:21:59;18.40;99.90
7792;DHT22;3940;49.892;10.886;2022-08-07T05:24:46;18.40;99.90
7792;DHT22;3940;49.892;10.886;2022-08-07T05:27:32;18.40;99.90
7792;DHT22;3940;49.892;10.886;2022-08-07T05:30:16;18.40;99.90
7792;DHT22;3940;49.892;10.886;2022-08-07T05:33:03;18.60;99.90
7792;DHT22;3940;49.892;10.886;2022-08-07T05:35:49;18.60;99.90
7792;DHT22;3940;49.892;10.886;2022-08-07T05:38:34;18.60;99.90
7792;DHT22;3940;49.892;10.886;2022-08-07T05:41:20;18.70;99.90
7792;DHT22;3940;49.892;10.886;2022-08-07T05:44:05;18.70;99.90
7792;DHT22;3940;49.892;10.886;2022-08-07T05:46:50;18.60;99.90
7792;DHT22;3940;49.892;10.886;2022-08-07T05:49:35;18.80;99.90
7792;DHT22;3940;49.892;10.886;2022-08-07T05:52:20;18.40;99.90
7792;DHT22;3940;49.892;10.886;2022-08-07T05:55:05;18.70;99.90
7792;DHT22;3940;49.892;10.886;2022-08-07T05:57:51;18.80;99.90
7792;DHT22;3940;49.892;10.886;2022-08-07T06:00:39;18.90;99.90
7792;DHT22;3940;49.892;10.886;2022-08-07T06:03:24;19.00;99.90
7792;DHT22;3940;49.892;10.886;2022-08-07T06:06:10;19.10;99.90
7792;DHT22;3940;49.892;10.886;2022-08-07T06:08:56;19.00;99.90
7792;DHT22;3940;49.892;10.886;2022-08-07T06:11:41;19.10;99.90
7792;DHT22;3940;49.892;10.886;2022-08-07T06:14:25;19.10;99.90
7792;DHT22;3940;49.892;10.886;2022-08-07T06:17:10;19.20;99.90
7792;DHT22;3940;49.892;10.886;2022-08-07T06:19:56;19.30;99.90
7792;DHT22;3940;49.892;10.886;2022-08-07T06:22:41;19.40;99.90
7792;DHT22;3940;49.892;10.886;2022-08-07T06:25:27;19.40;99.90
7792;DHT22;3940;49.892;10.886;2022-08-07T06:28:12;19.40;99.90
7792;DHT22;3940;49.892;10.886;2022-08-07T06:30:56;19.50;99.90
7792;DHT22;3940;49.892;10.886;2022-08-07T06:33:43;19.50;99.90
7792;DHT22;3940;49.892;10.886;2022-08-07T06:36:28;19.70;99.90
7792;DHT22;3940;49.892;10.886;2022-08-07T06:39:13;19.70;99.90
7792;DHT22;3940;49.892;10.886;2022-08-07T06:42:05;19.80;99.90
7792;DHT22;3940;49.892;10.886;2022-08-07T06:44:50;19.70;99.90
7792;DHT22;3940;49.892;10.886;2022-08-07T06:47:38;19.80;99.90
7792;DHT22;3940;49.892;10.886;2022-08-07T06:50:23;19.90;99.90
7792;DHT22;3940;49.892;10.886;2022-08-07T06:53:08;19.90;99.90
7792;DHT22;3940;49.892;10.886;2022-08-07T06:55:54;19.90;99.90
7792;DHT22;3940;49.892;10.886;2022-08-07T06:58:40;19.80;99.90
7792;DHT22;3940;49.892;10.886;2022-08-07T07:01:25;19.60;99.90
7792;DHT22;3940;49.892;10.886;2022-08-07T07:04:10;19.50;99.90
7792;DHT22;3940;49.892;10.886;2022-08-07T07:06:54;19.90;99.90
7792;DHT22;3940;49.892;10.886;2022-08-07T07:09:47;20.20;99.90
7792;DHT22;3940;49.892;10.886;2022-08-07T07:12:51;20.40;99.90
7792;DHT22;3940;49.892;10.886;2022-08-07T07:15:41;20.30;99.90
7792;DHT22;3940;49.892;10.886;2022-08-07T07:18:33;20.50;99.90
7792;DHT22;3940;49.892;10.886;2022-08-07T07:21:23;20.20;99.90
7792;DHT22;3940;49.892;10.886;2022-08-07T07:24:09;20.10;99.90
7792;DHT22;3940;49.892;10.886;2022-08-07T07:26:55;20.40;99.90
7792;DHT22;3940;49.892;10.886;2022-08-07T07:29:46;20.30;99.00
7792;DHT22;3940;49.892;10.886;2022-08-07T07:32:36;20.40;99.90
7792;DHT22;3940;49.892;10.886;2022-08-07T07:35:23;20.50;99.90
7792;DHT22;3940;49.892;10.886;2022-08-07T07:38:11;20.60;99.90
7792;DHT22;3940;49.892;10.886;2022-08-07T07:41:02;20.80;99.90
7792;DHT22;3940;49.892;10.886;2022-08-07T07:43:50;20.80;98.80
7792;DHT22;3940;49.892;10.886;2022-08-07T07:46:37;20.80;98.50
7792;DHT22;3940;49.892;10.886;2022-08-07T07:49:25;20.80;98.70
7792;DHT22;3940;49.892;10.886;2022-08-07T07:52:11;21.00;99.90
7792;DHT22;3940;49.892;10.886;2022-08-07T07:54:56;21.10;99.40
7792;DHT22;3940;49.892;10.886;2022-08-07T07:57:41;21.10;97.30
7792;DHT22;3940;49.892;10.886;2022-08-07T08:00:28;21.00;97.20
7792;DHT22;3940;49.892;10.886;2022-08-07T08:03:15;20.90;95.60
7792;DHT22;3940;49.892;10.886;2022-08-07T08:05:59;20.90;96.20
7792;DHT22;3940;49.892;10.886;2022-08-07T08:08:45;21.30;95.90
7792;DHT22;3940;49.892;10.886;2022-08-07T08:11:30;21.50;98.90
7792;DHT22;3940;49.892;10.886;2022-08-07T08:14:15;21.70;95.70
7792;DHT22;3940;49.892;10.886;2022-08-07T08:17:01;21.80;94.80
7792;DHT22;3940;49.892;10.886;2022-08-07T08:19:47;21.40;95.30
7792;DHT22;3940;49.892;10.886;2022-08-07T08:22:38;21.50;94.50
7792;DHT22;3940;49.892;10.886;2022-08-07T08:25:37;22.00;95.60
7792;DHT22;3940;49.892;10.886;2022-08-07T08:28:38;21.80;97.30
7792;DHT22;3940;49.892;10.886;2022-08-07T08:31:25;21.80;94.50
7792;DHT22;3940;49.892;10.886;2022-08-07T08:34:11;21.40;93.40
7792;DHT22;3940;49.892;10.886;2022-08-07T08:36:57;21.90;93.20
7792;DHT22;3940;49.892;10.886;2022-08-07T08:39:43;21.80;93.90
7792;DHT22;3940;49.892;10.886;2022-08-07T08:42:48;21.70;91.90
7792;DHT22;3940;49.892;10.886;2022-08-07T08:48:50;21.80;91.30
7792;DHT22;3940;49.892;10.886;2022-08-07T08:51:42;21.70;92.00
7792;DHT22;3940;49.892;10.886;2022-08-07T08:54:42;21.90;90.00
7792;DHT22;3940;49.892;10.886;2022-08-07T08:57:37;21.90;88.90
7792;DHT22;3940;49.892;10.886;2022-08-07T09:00:25;22.30;86.20
7792;DHT22;3940;49.892;10.886;2022-08-07T09:03:23;21.90;88.70
7792;DHT22;3940;49.892;10.886;2022-08-07T09:06:20;22.10;88.60
7792;DHT22;3940;49.892;10.886;2022-08-07T09:12:55;22.30;87.50
7792;DHT22;3940;49.892;10.886;2022-08-07T09:15:50;22.40;90.00
7792;DHT22;3940;49.892;10.886;2022-08-07T09:22:24;23.00;86.90
7792;DHT22;3940;49.892;10.886;2022-08-07T09:25:43;22.80;89.40
7792;DHT22;3940;49.892;10.886;2022-08-07T09:28:28;22.40;84.40
7792;DHT22;3940;49.892;10.886;2022-08-07T09:31:54;22.20;84.70
7792;DHT22;3940;49.892;10.886;2022-08-07T09:35:10;22.30;82.30
7792;DHT22;3940;49.892;10.886;2022-08-07T09:38:15;22.60;84.50
7792;DHT22;3940;49.892;10.886;2022-08-07T09:41:11;23.00;87.10
7792;DHT22;3940;49.892;10.886;2022-08-07T09:44:22;23.20;86.50
7792;DHT22;3940;49.892;10.886;2022-08-07T09:47:43;22.70;78.80
7792;DHT22;3940;49.892;10.886;2022-08-07T09:50:55;23.20;83.70
7792;DHT22;3940;49.892;10.886;2022-08-07T09:53:41;23.70;81.90
7792;DHT22;3940;49.892;10.886;2022-08-07T09:57:09;24.00;79.70
7792;DHT22;3940;49.892;10.886;2022-08-07T10:00:07;23.90;79.80
7792;DHT22;3940;49.892;10.886;2022-08-07T10:03:12;24.10;81.60
7792;DHT22;3940;49.892;10.886;2022-08-07T10:09:21;24.00;74.40
7792;DHT22;3940;49.892;10.886;2022-08-07T10:12:31;24.10;75.90
7792;DHT22;3940;49.892;10.886;2022-08-07T10:15:39;24.80;81.10
7792;DHT22;3940;49.892;10.886;2022-08-07T10:32:07;24.40;77.50
7792;DHT22;3940;49.892;10.886;2022-08-07T10:38:34;25.10;69.00
7792;DHT22;3940;49.892;10.886;2022-08-07T10:41:33;25.40;72.50
7792;DHT22;3940;49.892;10.886;2022-08-07T10:44:38;25.30;71.80
7792;DHT22;3940;49.892;10.886;2022-08-07T10:50:54;24.80;69.50
7792;DHT22;3940;49.892;10.886;2022-08-07T10:53:52;25.40;70.20
7792;DHT22;3940;49.892;10.886;2022-08-07T10:57:02;26.00;70.40
7792;DHT22;3940;49.892;10.886;2022-08-07T11:00:10;26.40;70.70
7792;DHT22;3940;49.892;10.886;2022-08-07T11:03:22;26.70;65.80
7792;DHT22;3940;49.892;10.886;2022-08-07T11:06:19;26.60;69.10
7792;DHT22;3940;49.892;10.886;2022-08-07T11:09:29;25.60;64.40
7792;DHT22;3940;49.892;10.886;2022-08-07T11:12:43;25.20;66.50
7792;DHT22;3940;49.892;10.886;2022-08-07T11:15:33;25.30;69.10
7792;DHT22;3940;49.892;10.886;2022-08-07T11:18:30;25.40;63.90
7792;DHT22;3940;49.892;10.886;2022-08-07T11:21:38;25.70;64.20
7792;DHT22;3940;49.892;10.886;2022-08-07T11:24:52;25.70;66.90
7792;DHT22;3940;49.892;10.886;2022-08-07T11:27:53;26.40;62.90
7792;DHT22;3940;49.892;10.886;2022-08-07T11:34:23;28.20;61.40
7792;DHT22;3940;49.892;10.886;2022-08-07T11:38:04;27.90;62.60
7792;DHT22;3940;49.892;10.886;2022-08-07T11:41:27;27.70;60.30
7792;DHT22;3940;49.892;10.886;2022-08-07T11:44:53;26.40;57.10
7792;DHT22;3940;49.892;10.886;2022-08-07T11:48:20;27.00;58.80
7792;DHT22;3940;49.892;10.886;2022-08-07T11:51:35;27.30;58.00
7792;DHT22;3940;49.892;10.886;2022-08-07T11:57:58;26.80;56.40
7792;DHT22;3940;49.892;10.886;2022-08-07T12:01:20;27.80;57.50
7792;DHT22;3940;49.892;10.886;2022-08-07T12:04:31;29.40;56.10
7792;DHT22;3940;49.892;10.886;2022-08-07T12:07:23;31.00;56.20
7792;DHT22;3940;49.892;10.886;2022-08-07T12:10:24;31.50;52.70
7792;DHT22;3940;49.892;10.886;2022-08-07T12:13:27;30.50;51.10
7792;DHT22;3940;49.892;10.886;2022-08-07T12:16:21;31.60;52.70
7792;DHT22;3940;49.892;10.886;2022-08-07T12:19:25;32.20;50.10
7792;DHT22;3940;49.892;10.886;2022-08-07T12:22:22;32.90;50.10
7792;DHT22;3940;49.892;10.886;2022-08-07T12:28:55;32.10;46.30
7792;DHT22;3940;49.892;10.886;2022-08-07T12:32:00;29.10;46.40
7792;DHT22;3940;49.892;10.886;2022-08-07T12:34:49;28.10;47.50
7792;DHT22;3940;49.892;10.886;2022-08-07T12:37:36;29.50;48.70
7792;DHT22;3940;49.892;10.886;2022-08-07T12:40:25;29.70;49.50
7792;DHT22;3940;49.892;10.886;2022-08-07T12:43:17;28.40;50.40
7792;DHT22;3940;49.892;10.886;2022-08-07T12:46:27;28.40;48.60
7792;DHT22;3940;49.892;10.886;2022-08-07T12:49:56;28.80;48.40
7792;DHT22;3940;49.892;10.886;2022-08-07T12:52:47;29.80;48.00
7792;DHT22;3940;49.892;10.886;2022-08-07T12:55:45;30.20;46.60
7792;DHT22;3940;49.892;10.886;2022-08-07T12:58:34;29.10;47.70
7792;DHT22;3940;49.892;10.886;2022-08-07T13:05:05;32.00;48.60
7792;DHT22;3940;49.892;10.886;2022-08-07T13:08:13;32.40;45.20
7792;DHT22;3940;49.892;10.886;2022-08-07T13:11:11;33.60;47.20
7792;DHT22;3940;49.892;10.886;2022-08-07T13:14:18;34.50;44.50
7792;DHT22;3940;49.892;10.886;2022-08-07T13:17:16;35.10;43.20
7792;DHT22;3940;49.892;10.886;2022-08-07T13:20:11;35.20;42.70
7792;DHT22;3940;49.892;10.886;2022-08-07T13:23:03;33.50;42.90
7792;DHT22;3940;49.892;10.886;2022-08-07T13:26:06;34.50;46.10
7792;DHT22;3940;49.892;10.886;2022-08-07T13:29:28;32.20;43.50
7792;DHT22;3940;49.892;10.886;2022-08-07T13:32:29;30.90;44.90
7792;DHT22;3940;49.892;10.886;2022-08-07T13:38:37;32.90;44.80
7792;DHT22;3940;49.892;10.886;2022-08-07T13:41:44;34.40;43.70
7792;DHT22;3940;49.892;10.886;2022-08-07T13:44:32;34.30;43.10
7792;DHT22;3940;49.892;10.886;2022-08-07T13:47:26;34.50;43.70
7792;DHT22;3940;49.892;10.886;2022-08-07T13:50:12;34.90;42.10
7792;DHT22;3940;49.892;10.886;2022-08-07T13:53:04;35.10;41.40
7792;DHT22;3940;49.892;10.886;2022-08-07T13:55:50;32.30;41.50
7792;DHT22;3940;49.892;10.886;2022-08-07T13:58:39;31.30;41.80
7792;DHT22;3940;49.892;10.886;2022-08-07T14:01:42;31.10;42.50
7792;DHT22;3940;49.892;10.886;2022-08-07T14:04:28;30.60;46.10
7792;DHT22;3940;49.892;10.886;2022-08-07T14:07:14;31.90;43.40
7792;DHT22;3940;49.892;10.886;2022-08-07T14:10:00;31.00;43.90
7792;DHT22;3940;49.892;10.886;2022-08-07T14:12:51;29.30;45.00
7792;DHT22;3940;49.892;10.886;2022-08-07T14:15:41;29.90;46.50
7792;DHT22;3940;49.892;10.886;2022-08-07T14:18:30;30.90;43.50
7792;DHT22;3940;49.892;10.886;2022-08-07T14:21:22;31.90;43.30
7792;DHT22;3940;49.892;10.886;2022-08-07T14:24:13;30.50;42.40
7792;DHT22;3940;49.892;10.886;2022-08-07T14:27:02;29.40;44.90
7792;DHT22;3940;49.892;10.886;2022-08-07T14:29:51;28.90;48.30
7792;DHT22;3940;49.892;10.886;2022-08-07T14:32:41;30.40;45.70
7792;DHT22;3940;49.892;10.886;2022-08-07T14:35:28;30.00;45.70
7792;DHT22;3940;49.892;10.886;2022-08-07T14:38:14;29.80;45.90
7792;DHT22;3940;49.892;10.886;2022-08-07T14:41:07;30.00;45.90
7792;DHT22;3940;49.892;10.886;2022-08-07T14:43:54;31.60;46.00
7792;DHT22;3940;49.892;10.886;2022-08-07T14:46:41;31.80;44.40
7792;DHT22;3940;49.892;10.886;2022-08-07T14:49:30;31.10;45.50
7792;DHT22;3940;49.892;10.886;2022-08-07T14:52:15;32.50;43.10
7792;DHT22;3940;49.892;10.886;2022-08-07T14:55:03;33.10;42.40
7792;DHT22;3940;49.892;10.886;2022-08-07T14:57:50;32.40;42.90
7792;DHT22;3940;49.892;10.886;2022-08-07T15:00:35;32.60;44.00
7792;DHT22;3940;49.892;10.886;2022-08-07T15:03:25;33.40;43.50
7792;DHT22;3940;49.892;10.886;2022-08-07T15:06:13;33.60;41.20
7792;DHT22;3940;49.892;10.886;2022-08-07T15:09:04;33.30;43.50
7792;DHT22;3940;49.892;10.886;2022-08-07T15:11:57;32.10;43.10
7792;DHT22;3940;49.892;10.886;2022-08-07T15:14:49;31.40;42.20
7792;DHT22;3940;49.892;10.886;2022-08-07T15:17:39;31.60;45.00
7792;DHT22;3940;49.892;10.886;2022-08-07T15:20:29;32.70;43.70
7792;DHT22;3940;49.892;10.886;2022-08-07T15:23:21;33.10;42.60
7792;DHT22;3940;49.892;10.886;2022-08-07T15:26:09;32.90;40.90
7792;DHT22;3940;49.892;10.886;2022-08-07T15:28:55;31.20;42.70
7792;DHT22;3940;49.892;10.886;2022-08-07T15:31:43;30.90;41.40
7792;DHT22;3940;49.892;10.886;2022-08-07T15:34:42;30.90;42.60
7792;DHT22;3940;49.892;10.886;2022-08-07T15:37:31;31.50;43.20
7792;DHT22;3940;49.892;10.886;2022-08-07T15:40:19;31.90;45.00
7792;DHT22;3940;49.892;10.886;2022-08-07T15:43:20;31.90;42.50
7792;DHT22;3940;49.892;10.886;2022-08-07T15:46:18;30.60;43.00
7792;DHT22;3940;49.892;10.886;2022-08-07T15:49:06;30.10;43.70
7792;DHT22;3940;49.892;10.886;2022-08-07T15:51:54;30.70;44.20
7792;DHT22;3940;49.892;10.886;2022-08-07T15:54:41;31.40;44.90
7792;DHT22;3940;49.892;10.886;2022-08-07T15:57:28;31.90;44.40
7792;DHT22;3940;49.892;10.886;2022-08-07T16:00:13;32.10;45.60
7792;DHT22;3940;49.892;10.886;2022-08-07T16:03:02;31.90;45.00
7792;DHT22;3940;49.892;10.886;2022-08-07T16:05:50;30.50;42.90
7792;DHT22;3940;49.892;10.886;2022-08-07T16:08:40;31.40;42.20
7792;DHT22;3940;49.892;10.886;2022-08-07T16:11:34;31.90;42.10
7792;DHT22;3940;49.892;10.886;2022-08-07T16:18:15;32.20;43.70
7792;DHT22;3940;49.892;10.886;2022-08-07T16:21:07;32.70;42.40
7792;DHT22;3940;49.892;10.886;2022-08-07T16:24:02;32.80;42.50
7792;DHT22;3940;49.892;10.886;2022-08-07T16:27:04;31.70;41.70
7792;DHT22;3940;49.892;10.886;2022-08-07T16:30:04;31.00;41.90
7792;DHT22;3940;49.892;10.886;2022-08-07T16:32:56;30.00;41.20
7792;DHT22;3940;49.892;10.886;2022-08-07T16:35:46;29.70;45.00
7792;DHT22;3940;49.892;10.886;2022-08-07T16:42:06;30.10;43.70
7792;DHT22;3940;49.892;10.886;2022-08-07T16:45:01;29.60;43.80
7792;DHT22;3940;49.892;10.886;2022-08-07T16:48:23;30.70;45.40
7792;DHT22;3940;49.892;10.886;2022-08-07T16:51:11;30.90;44.70
7792;DHT22;3940;49.892;10.886;2022-08-07T16:57:23;30.30;43.50
7792;DHT22;3940;49.892;10.886;2022-08-07T17:00:14;29.60;45.20
7792;DHT22;3940;49.892;10.886;2022-08-07T17:09:45;28.90;44.00
7792;DHT22;3940;49.892;10.886;2022-08-07T17:12:46;29.50;45.50
7792;DHT22;3940;49.892;10.886;2022-08-07T17:18:59;29.20;45.70
7792;DHT22;3940;49.892;10.886;2022-08-07T17:21:51;29.50;46.20
7792;DHT22;3940;49.892;10.886;2022-08-07T17:25:06;29.40;46.80
7792;DHT22;3940;49.892;10.886;2022-08-07T17:28:08;29.50;47.30
7792;DHT22;3940;49.892;10.886;2022-08-07T17:31:12;29.60;46.90
7792;DHT22;3940;49.892;10.886;2022-08-07T17:34:10;29.50;48.20
7792;DHT22;3940;49.892;10.886;2022-08-07T17:37:08;29.70;46.90
7792;DHT22;3940;49.892;10.886;2022-08-07T17:40:02;30.10;44.50
7792;DHT22;3940;49.892;10.886;2022-08-07T17:42:52;30.40;44.40
7792;DHT22;3940;49.892;10.886;2022-08-07T17:45:40;29.80;45.70
7792;DHT22;3940;49.892;10.886;2022-08-07T17:48:31;29.30;46.70
7792;DHT22;3940;49.892;10.886;2022-08-07T17:51:19;28.70;46.80
7792;DHT22;3940;49.892;10.886;2022-08-07T17:54:15;28.10;45.80
7792;DHT22;3940;49.892;10.886;2022-08-07T17:57:05;28.00;47.30
7792;DHT22;3940;49.892;10.886;2022-08-07T17:59:54;28.00;47.50
7792;DHT22;3940;49.892;10.886;2022-08-07T18:02:45;27.90;48.10
7792;DHT22;3940;49.892;10.886;2022-08-07T18:05:41;27.70;46.00
7792;DHT22;3940;49.892;10.886;2022-08-07T18:08:46;27.70;47.90
7792;DHT22;3940;49.892;10.886;2022-08-07T18:11:39;27.40;48.60
7792;DHT22;3940;49.892;10.886;2022-08-07T18:14:36;27.60;47.00
7792;DHT22;3940;49.892;10.886;2022-08-07T18:17:42;27.30;48.00
7792;DHT22;3940;49.892;10.886;2022-08-07T18:20:33;27.00;48.30
7792;DHT22;3940;49.892;10.886;2022-08-07T18:23:37;27.00;47.90
7792;DHT22;3940;49.892;10.886;2022-08-07T18:26:45;27.00;48.90
7792;DHT22;3940;49.892;10.886;2022-08-07T18:29:53;26.80;49.20
7792;DHT22;3940;49.892;10.886;2022-08-07T18:33:06;26.80;47.20
7792;DHT22;3940;49.892;10.886;2022-08-07T18:36:16;26.80;52.00
7792;DHT22;3940;49.892;10.886;2022-08-07T18:39:13;26.70;48.90
7792;DHT22;3940;49.892;10.886;2022-08-07T18:45:09;26.60;50.30
7792;DHT22;3940;49.892;10.886;2022-08-07T18:48:07;26.40;49.90
7792;DHT22;3940;49.892;10.886;2022-08-07T18:51:30;26.40;50.60
7792;DHT22;3940;49.892;10.886;2022-08-07T18:54:28;26.20;50.40
7792;DHT22;3940;49.892;10.886;2022-08-07T19:00:17;25.90;51.40
7792;DHT22;3940;49.892;10.886;2022-08-07T19:03:08;25.70;53.00
7792;DHT22;3940;49.892;10.886;2022-08-07T19:06:02;25.60;54.80
7792;DHT22;3940;49.892;10.886;2022-08-07T19:09:03;25.60;54.60
7792;DHT22;3940;49.892;10.886;2022-08-07T19:12:06;25.70;62.40
7792;DHT22;3940;49.892;10.886;2022-08-07T19:15:03;25.60;56.90
7792;DHT22;3940;49.892;10.886;2022-08-07T19:18:11;25.50;54.90
7792;DHT22;3940;49.892;10.886;2022-08-07T19:21:18;25.50;59.00
7792;DHT22;3940;49.892;10.886;2022-08-07T19:24:09;25.50;56.10
7792;DHT22;3940;49.892;10.886;2022-08-07T19:27:02;25.40;57.30
7792;DHT22;3940;49.892;10.886;2022-08-07T19:29:53;25.30;58.70
7792;DHT22;3940;49.892;10.886;2022-08-07T19:32:41;25.30;56.80
7792;DHT22;3940;49.892;10.886;2022-08-07T19:35:27;25.30;57.60
7792;DHT22;3940;49.892;10.886;2022-08-07T19:38:14;25.30;56.60
7792;DHT22;3940;49.892;10.886;2022-08-07T19:41:03;25.20;56.10
7792;DHT22;3940;49.892;10.886;2022-08-07T19:43:49;25.10;59.00
7792;DHT22;3940;49.892;10.886;2022-08-07T19:46:38;25.00;62.90